Time;durP1;ratioP1;P1;durP2;ratioP2;P2;SDS_P1;SDS_P2;PMS_P1;PMS_P2;Temp;Humidity;BMP_temperature;BMP_pressure;BME280_temperature;BME280_humidity;BME280_pressure;Samples;Min_cycle;Max_cycle;Signal;HPM_P1;HPM_P2
2023/06/09 00:00:07;;;;;;;;;;;20.90;58.40;;;;;;6293124;28;20355;-71
2023/06/09 00:03:08;;;;;;;;;;;20.90;58.40;;;;;;6292678;28;19924;-71
2023/06/09 00:06:10;;;;;;;;;;;20.90;58.40;;;;;;6292999;28;20282;-71
2023/06/09 00:09:10;;;;;;;;;;;20.90;58.40;;;;;;6292609;28;20402;-71
2023/06/09 00:12:12;;;;;;;;;;;20.90;58.40;;;;;;6292841;28;19915;-71
2023/06/09 00:15:14;;;;;;;;;;;20.90;58.50;;;;;;6292478;28;20287;-71
2023/06/09 00:18:16;;;;;;;;;;;20.90;58.40;;;;;;6293322;28;19913;-71
2023/06/09 00:21:18;;;;;;;;;;;20.90;58.50;;;;;;6292547;28;19915;-71
2023/06/09 00:24:20;;;;;;;;;;;20.90;58.40;;;;;;6292527;28;20374;-71
2023/06/09 00:27:20;;;;;;;;;;;20.90;58.40;;;;;;6292989;28;19915;-71
2023/06/09 00:30:22;;;;;;;;;;;20.90;58.40;;;;;;6292281;28;19917;-71
2023/06/09 00:33:23;;;;;;;;;;;20.90;58.50;;;;;;6293328;28;19915;-71
2023/06/09 00:36:23;;;;;;;;;;;20.90;58.50;;;;;;6292644;28;19912;-71
2023/06/09 00:39:24;;;;;;;;;;;20.90;58.40;;;;;;6292734;28;19908;-71
2023/06/09 00:42:24;;;;;;;;;;;20.90;58.50;;;;;;6292270;28;19916;-71
2023/06/09 00:45:25;;;;;;;;;;;20.90;58.40;;;;;;6292462;28;20049;-71
2023/06/09 00:48:25;;;;;;;;;;;20.90;58.50;;;;;;6294162;28;19912;-72
2023/06/09 00:51:26;;;;;;;;;;;20.90;58.40;;;;;;6296982;28;20436;-71
2023/06/09 00:54:27;;;;;;;;;;;20.90;58.40;;;;;;6297756;28;19913;-71
2023/06/09 00:57:29;;;;;;;;;;;20.90;58.50;;;;;;6297112;28;20292;-71
2023/06/09 01:00:31;;;;;;;;;;;20.90;58.50;;;;;;6296747;28;19908;-71
2023/06/09 01:03:32;;;;;;;;;;;20.90;58.50;;;;;;6296942;28;19921;-71
2023/06/09 01:06:39;;;;;;;;;;;20.90;58.50;;;;;;6296232;28;19912;-71
2023/06/09 01:09:40;;;;;;;;;;;20.90;58.50;;;;;;6296814;28;19966;-71
2023/06/09 01:12:46;;;;;;;;;;;20.90;58.50;;;;;;6296981;28;19909;-71
2023/06/09 01:15:49;;;;;;;;;;;20.90;58.50;;;;;;6296418;28;19978;-71
2023/06/09 01:18:51;;;;;;;;;;;20.90;59.20;;;;;;6296896;28;19999;-71
2023/06/09 01:21:53;;;;;;;;;;;20.90;58.50;;;;;;6296564;28;20291;-71
2023/06/09 01:25:18;;;;;;;;;;;20.90;58.50;;;;;;6294731;28;20350;-71
2023/06/09 01:28:23;;;;;;;;;;;20.90;58.50;;;;;;6296452;28;19910;-71
2023/06/09 01:31:24;;;;;;;;;;;20.90;58.50;;;;;;6271708;28;19921;-71
2023/06/09 01:34:25;;;;;;;;;;;20.90;58.50;;;;;;6279502;28;19912;-71
2023/06/09 01:37:26;;;;;;;;;;;20.90;58.50;;;;;;6296373;28;20329;-71
2023/06/09 01:40:27;;;;;;;;;;;20.90;58.50;;;;;;6296077;28;19916;-71
2023/06/09 01:43:28;;;;;;;;;;;20.90;58.50;;;;;;6296580;28;19913;-71
2023/06/09 01:46:28;;;;;;;;;;;20.90;58.50;;;;;;6295999;28;19959;-71
2023/06/09 01:49:50;;;;;;;;;;;20.90;58.50;;;;;;6295901;28;19959;-71
2023/06/09 01:53:09;;;;;;;;;;;20.90;58.50;;;;;;6296006;28;19909;-71
2023/06/09 01:56:19;;;;;;;;;;;20.90;58.50;;;;;;6295847;28;19913;-71
2023/06/09 01:59:22;;;;;;;;;;;20.90;58.50;;;;;;6296185;28;19909;-71
2023/06/09 02:02:25;;;;;;;;;;;20.90;58.50;;;;;;6295167;28;19919;-71
2023/06/09 02:05:28;;;;;;;;;;;20.90;58.50;;;;;;6295398;28;19915;-71
2023/06/09 02:08:29;;;;;;;;;;;20.90;58.50;;;;;;6295699;28;19912;-71
2023/06/09 02:11:29;;;;;;;;;;;20.90;58.50;;;;;;6295180;28;19921;-71
2023/06/09 02:14:33;;;;;;;;;;;20.90;58.50;;;;;;6295389;28;19982;-71
2023/06/09 02:17:34;;;;;;;;;;;20.90;58.50;;;;;;6295637;28;20430;-71
2023/06/09 02:20:34;;;;;;;;;;;20.90;58.50;;;;;;6295230;28;19912;-71
2023/06/09 02:23:35;;;;;;;;;;;20.90;58.50;;;;;;6294668;28;19935;-71
2023/06/09 02:26:35;;;;;;;;;;;20.90;58.50;;;;;;6294833;28;19966;-72
2023/06/09 02:29:36;;;;;;;;;;;20.90;58.50;;;;;;6295476;28;19939;-72
2023/06/09 02:32:36;;;;;;;;;;;20.90;58.50;;;;;;6294985;28;19912;-72
2023/06/09 02:35:37;;;;;;;;;;;20.90;58.50;;;;;;6294813;28;19908;-71
2023/06/09 02:38:37;;;;;;;;;;;20.90;58.50;;;;;;6295272;28;19912;-72
2023/06/09 02:41:38;;;;;;;;;;;20.90;58.60;;;;;;6294598;28;19912;-71
2023/06/09 02:44:39;;;;;;;;;;;20.90;58.50;;;;;;6294525;28;20371;-71
2023/06/09 02:47:39;;;;;;;;;;;20.90;58.50;;;;;;6294391;28;19938;-72
2023/06/09 02:50:40;;;;;;;;;;;20.90;58.60;;;;;;6295112;28;19920;-71
2023/06/09 02:53:41;;;;;;;;;;;20.90;58.60;;;;;;6294128;28;20311;-71
2023/06/09 02:56:41;;;;;;;;;;;20.90;58.60;;;;;;6294561;28;19909;-72
2023/06/09 02:59:42;;;;;;;;;;;20.90;58.50;;;;;;6294509;28;19913;-71
2023/06/09 03:02:42;;;;;;;;;;;20.90;58.60;;;;;;6295085;28;19961;-71
2023/06/09 03:05:44;;;;;;;;;;;20.90;58.60;;;;;;6293774;28;20003;-71
2023/06/09 03:08:44;;;;;;;;;;;20.90;58.60;;;;;;6294289;28;19912;-71
2023/06/09 03:11:46;;;;;;;;;;;20.90;58.60;;;;;;6294027;28;19927;-71
2023/06/09 03:14:46;;;;;;;;;;;20.90;58.60;;;;;;6293867;28;19993;-71
2023/06/09 03:17:47;;;;;;;;;;;20.90;58.60;;;;;;6293962;28;19919;-72
2023/06/09 03:20:48;;;;;;;;;;;20.90;58.60;;;;;;6293854;28;20388;-71
2023/06/09 03:23:49;;;;;;;;;;;20.90;58.60;;;;;;6293541;28;19923;-71
2023/06/09 03:26:52;;;;;;;;;;;20.90;58.60;;;;;;6293047;28;19913;-71
2023/06/09 03:29:52;;;;;;;;;;;20.90;58.60;;;;;;6293828;28;20085;-71
2023/06/09 03:32:53;;;;;;;;;;;20.90;58.60;;;;;;6293433;28;19912;-72
2023/06/09 03:35:53;;;;;;;;;;;20.90;58.60;;;;;;6293591;28;19912;-71
2023/06/09 03:38:54;;;;;;;;;;;20.90;58.60;;;;;;6292972;28;19908;-71
2023/06/09 03:41:56;;;;;;;;;;;20.90;58.60;;;;;;6292977;28;19935;-72
2023/06/09 03:44:58;;;;;;;;;;;20.90;58.60;;;;;;6293872;28;19981;-71
2023/06/09 03:47:59;;;;;;;;;;;20.90;58.60;;;;;;6292995;28;19916;-72
2023/06/09 03:50:59;;;;;;;;;;;20.90;58.60;;;;;;6293120;28;19916;-72
2023/06/09 03:54:00;;;;;;;;;;;20.90;58.60;;;;;;6293225;28;19908;-71
2023/06/09 03:57:00;;;;;;;;;;;20.90;58.60;;;;;;6293000;28;20288;-72
2023/06/09 04:03:39;;;;;;;;;;;20.90;58.60;;;;;;6292874;28;19920;-71
2023/06/09 04:06:45;;;;;;;;;;;20.90;58.60;;;;;;6292691;28;20402;-72
2023/06/09 04:09:46;;;;;;;;;;;20.90;58.60;;;;;;6293117;28;19923;-72
2023/06/09 04:12:46;;;;;;;;;;;20.90;58.60;;;;;;6293469;28;19909;-72
2023/06/09 04:15:47;;;;;;;;;;;20.90;58.70;;;;;;6292919;28;19909;-71
2023/06/09 04:18:47;;;;;;;;;;;20.90;58.60;;;;;;6290896;28;19917;-71
2023/06/09 04:21:48;;;;;;;;;;;20.90;58.60;;;;;;6293074;28;19928;-71
2023/06/09 04:24:48;;;;;;;;;;;20.90;58.60;;;;;;6290417;28;20147;-71
2023/06/09 04:27:49;;;;;;;;;;;20.90;58.60;;;;;;6293070;28;19920;-72
2023/06/09 04:30:50;;;;;;;;;;;20.90;58.60;;;;;;6293032;28;19960;-71
2023/06/09 04:33:51;;;;;;;;;;;20.90;58.60;;;;;;6291915;28;20543;-71
2023/06/09 04:36:52;;;;;;;;;;;20.90;58.60;;;;;;6292874;28;20348;-71
2023/06/09 04:39:54;;;;;;;;;;;20.90;58.60;;;;;;6292650;28;19919;-71
2023/06/09 04:42:59;;;;;;;;;;;20.90;58.60;;;;;;6292779;28;19947;-71
2023/06/09 04:45:59;;;;;;;;;;;20.90;58.60;;;;;;6292354;28;20394;-71
2023/06/09 04:49:00;;;;;;;;;;;20.90;58.60;;;;;;6292524;28;19912;-71
2023/06/09 04:52:00;;;;;;;;;;;20.90;58.70;;;;;;6292771;28;20339;-72
2023/06/09 04:55:01;;;;;;;;;;;20.90;58.60;;;;;;6292451;28;19943;-71
2023/06/09 04:58:03;;;;;;;;;;;20.90;58.70;;;;;;6292087;28;19908;-71
2023/06/09 05:01:03;;;;;;;;;;;20.90;59.40;;;;;;6288930;28;19964;-71
2023/06/09 05:04:06;;;;;;;;;;;20.90;58.70;;;;;;6292114;28;19924;-71
2023/06/09 05:07:06;;;;;;;;;;;20.90;58.70;;;;;;6292283;28;19951;-71
2023/06/09 05:10:08;;;;;;;;;;;20.90;58.70;;;;;;6292229;28;19927;-71
2023/06/09 05:13:09;;;;;;;;;;;20.90;58.70;;;;;;6292493;28;19931;-71
2023/06/09 05:16:11;;;;;;;;;;;20.90;58.70;;;;;;6292491;28;19909;-71
2023/06/09 05:19:11;;;;;;;;;;;20.90;58.70;;;;;;6292482;28;19919;-72
2023/06/09 05:22:12;;;;;;;;;;;20.90;58.70;;;;;;6292350;28;19912;-71
2023/06/09 05:25:16;;;;;;;;;;;20.90;58.70;;;;;;6291952;28;19965;-71
2023/06/09 05:28:16;;;;;;;;;;;20.90;58.70;;;;;;6291590;28;19951;-71
2023/06/09 05:31:17;;;;;;;;;;;20.90;58.70;;;;;;6290897;28;19917;-71
2023/06/09 05:34:17;;;;;;;;;;;20.90;58.70;;;;;;6291313;28;19913;-71
2023/06/09 05:37:18;;;;;;;;;;;20.90;58.70;;;;;;6296176;28;20313;-72
2023/06/09 05:40:18;;;;;;;;;;;20.90;58.70;;;;;;6296266;28;19912;-71
2023/06/09 05:43:19;;;;;;;;;;;20.90;58.70;;;;;;6296472;28;20554;-71
2023/06/09 05:46:19;;;;;;;;;;;20.90;58.70;;;;;;6295996;28;19912;-72
2023/06/09 05:49:20;;;;;;;;;;;20.90;58.70;;;;;;6295807;28;19920;-72
2023/06/09 05:52:20;;;;;;;;;;;20.90;59.40;;;;;;6296335;28;19977;-71
2023/06/09 05:55:21;;;;;;;;;;;20.90;58.70;;;;;;6295621;28;19915;-71
2023/06/09 05:58:21;;;;;;;;;;;20.90;58.70;;;;;;6295644;28;19915;-72
2023/06/09 06:01:23;;;;;;;;;;;20.90;58.70;;;;;;6293473;28;19981;-71
2023/06/09 06:04:24;;;;;;;;;;;20.90;58.70;;;;;;6308984;28;19927;-71
2023/06/09 06:07:25;;;;;;;;;;;20.90;58.70;;;;;;6322564;28;19912;-71
2023/06/09 06:10:26;;;;;;;;;;;20.90;58.70;;;;;;6295713;28;20420;-71
2023/06/09 06:13:26;;;;;;;;;;;20.90;58.70;;;;;;6297639;28;19908;-71
2023/06/09 06:16:27;;;;;;;;;;;20.90;58.70;;;;;;6298229;28;19928;-71
2023/06/09 06:19:27;;;;;;;;;;;20.90;58.70;;;;;;6297492;28;19922;-72
2023/06/09 06:22:28;;;;;;;;;;;20.90;58.80;;;;;;6297027;28;19909;-71
2023/06/09 06:25:28;;;;;;;;;;;20.90;58.70;;;;;;6296904;28;20359;-72
2023/06/09 06:28:29;;;;;;;;;;;20.90;58.80;;;;;;6296759;28;19978;-71
2023/06/09 06:31:30;;;;;;;;;;;20.90;58.70;;;;;;6297430;28;19920;-72
2023/06/09 06:34:31;;;;;;;;;;;20.90;58.80;;;;;;6296785;28;20326;-71
2023/06/09 06:37:33;;;;;;;;;;;20.90;58.70;;;;;;6297239;28;19912;-71
2023/06/09 06:40:33;;;;;;;;;;;20.90;58.70;;;;;;6296829;28;19909;-71
2023/06/09 06:43:34;;;;;;;;;;;21.00;58.80;;;;;;6294621;28;19916;-72
2023/06/09 06:46:34;;;;;;;;;;;20.90;58.70;;;;;;6296183;28;19915;-72
2023/06/09 06:49:35;;;;;;;;;;;20.90;58.80;;;;;;6296451;28;19921;-72
2023/06/09 06:52:35;;;;;;;;;;;20.90;58.70;;;;;;6297091;28;20282;-71
2023/06/09 06:55:36;;;;;;;;;;;21.00;58.80;;;;;;6296260;28;19917;-71
2023/06/09 06:58:37;;;;;;;;;;;20.90;58.80;;;;;;6296640;28;19915;-72
2023/06/09 07:01:38;;;;;;;;;;;20.90;58.80;;;;;;6296283;28;20027;-71
2023/06/09 07:04:39;;;;;;;;;;;20.90;58.80;;;;;;6296397;28;20011;-71
2023/06/09 07:07:40;;;;;;;;;;;20.90;58.80;;;;;;6296504;28;20295;-71
2023/06/09 07:10:40;;;;;;;;;;;20.90;58.70;;;;;;6296636;28;19928;-71
2023/06/09 07:13:41;;;;;;;;;;;20.90;58.80;;;;;;6296366;28;19915;-71
2023/06/09 07:16:41;;;;;;;;;;;20.90;58.80;;;;;;6295784;28;20099;-71
2023/06/09 07:19:42;;;;;;;;;;;20.90;58.80;;;;;;6296641;28;19954;-72
2023/06/09 07:22:43;;;;;;;;;;;20.90;58.80;;;;;;6296205;28;20010;-72
2023/06/09 07:25:43;;;;;;;;;;;20.90;58.80;;;;;;6295752;28;20297;-71
2023/06/09 07:28:43;;;;;;;;;;;20.90;58.80;;;;;;6295588;28;19940;-72
2023/06/09 07:31:44;;;;;;;;;;;21.00;59.50;;;;;;6295691;28;19916;-72
2023/06/09 07:34:45;;;;;;;;;;;20.90;58.80;;;;;;6295758;28;19916;-71
2023/06/09 07:37:46;;;;;;;;;;;20.90;58.80;;;;;;6295561;28;20288;-71
2023/06/09 07:40:46;;;;;;;;;;;20.90;58.80;;;;;;6292048;28;19909;-72
2023/06/09 07:43:47;;;;;;;;;;;20.90;58.80;;;;;;6283894;28;20283;-71
2023/06/09 07:46:47;;;;;;;;;;;20.90;58.80;;;;;;6287650;28;19965;-72
2023/06/09 07:49:48;;;;;;;;;;;20.90;58.80;;;;;;6273304;28;20354;-72
2023/06/09 07:52:48;;;;;;;;;;;20.90;58.80;;;;;;6294732;28;20435;-71
2023/06/09 07:55:49;;;;;;;;;;;20.90;58.80;;;;;;6285632;28;19966;-72
2023/06/09 07:58:49;;;;;;;;;;;20.90;58.80;;;;;;6282450;28;19955;-71
2023/06/09 08:01:50;;;;;;;;;;;20.90;58.80;;;;;;6293491;28;20002;-71
2023/06/09 08:04:51;;;;;;;;;;;20.90;58.80;;;;;;6293706;28;19928;-72
2023/06/09 08:07:51;;;;;;;;;;;20.90;58.80;;;;;;6290860;28;19949;-71
2023/06/09 08:10:52;;;;;;;;;;;20.90;58.80;;;;;;6312251;28;19921;-72
2023/06/09 08:13:53;;;;;;;;;;;20.90;58.80;;;;;;6293790;28;19917;-71
2023/06/09 08:16:53;;;;;;;;;;;20.90;58.80;;;;;;6291317;28;19917;-71
2023/06/09 08:19:54;;;;;;;;;;;20.90;58.80;;;;;;6293960;28;19909;-72
2023/06/09 08:22:54;;;;;;;;;;;20.90;58.90;;;;;;6276367;28;19960;-71
2023/06/09 08:25:55;;;;;;;;;;;21.00;58.90;;;;;;6313776;28;19958;-71
2023/06/09 08:28:55;;;;;;;;;;;21.00;59.00;;;;;;6293890;28;19913;-71
2023/06/09 08:31:56;;;;;;;;;;;20.90;58.80;;;;;;6280587;28;19917;-70
2023/06/09 08:34:56;;;;;;;;;;;20.90;58.80;;;;;;6284824;28;20310;-70
2023/06/09 08:37:57;;;;;;;;;;;21.00;59.00;;;;;;6289398;28;19920;-71
2023/06/09 08:41:02;;;;;;;;;;;21.00;58.90;;;;;;6288486;28;19913;-70
2023/06/09 08:44:04;;;;;;;;;;;21.00;58.90;;;;;;6283501;28;19908;-71
2023/06/09 08:47:05;;;;;;;;;;;21.00;58.90;;;;;;6307792;28;19909;-70
2023/06/09 08:50:06;;;;;;;;;;;21.00;58.90;;;;;;6304815;28;19917;-70
2023/06/09 08:53:07;;;;;;;;;;;21.00;59.00;;;;;;6275583;28;19982;-70
2023/06/09 08:56:08;;;;;;;;;;;21.00;58.90;;;;;;6290555;28;19920;-70
2023/06/09 08:59:09;;;;;;;;;;;21.00;59.00;;;;;;6284619;28;20355;-70
2023/06/09 09:02:10;;;;;;;;;;;21.00;59.00;;;;;;6295128;28;19944;-70
2023/06/09 09:05:11;;;;;;;;;;;21.00;59.00;;;;;;6295858;28;19962;-70
2023/06/09 09:08:12;;;;;;;;;;;21.00;59.00;;;;;;6295736;28;19908;-70
2023/06/09 09:11:13;;;;;;;;;;;21.00;59.00;;;;;;6299838;28;19923;-70
2023/06/09 09:14:14;;;;;;;;;;;21.00;59.00;;;;;;6300366;28;19909;-70
2023/06/09 09:17:15;;;;;;;;;;;21.00;59.00;;;;;;6300309;28;19909;-70
2023/06/09 09:20:15;;;;;;;;;;;21.00;59.00;;;;;;6300253;28;19908;-70
2023/06/09 09:23:16;;;;;;;;;;;21.00;59.00;;;;;;6300249;28;19916;-70
2023/06/09 09:26:18;;;;;;;;;;;21.00;59.00;;;;;;6299994;28;20791;-70
2023/06/09 09:29:19;;;;;;;;;;;21.00;59.00;;;;;;6300014;28;19982;-70
2023/06/09 09:32:24;;;;;;;;;;;21.00;59.00;;;;;;6300059;28;19913;-70
2023/06/09 09:35:25;;;;;;;;;;;21.00;59.00;;;;;;6299984;28;20283;-70
2023/06/09 09:38:27;;;;;;;;;;;21.00;59.00;;;;;;6299964;28;19915;-70
2023/06/09 09:41:29;;;;;;;;;;;21.00;59.00;;;;;;6300038;28;20283;-70
2023/06/09 09:44:42;;;;;;;;;;;21.00;59.00;;;;;;6299990;28;19909;-71
2023/06/09 09:47:43;;;;;;;;;;;21.00;59.00;;;;;;6299517;28;19919;-72
2023/06/09 09:50:44;;;;;;;;;;;21.00;59.00;;;;;;6299667;28;19916;-71
2023/06/09 09:53:49;;;;;;;;;;;21.00;59.00;;;;;;6299861;28;19954;-70
2023/06/09 09:56:50;;;;;;;;;;;21.00;59.00;;;;;;6299156;28;19999;-71
2023/06/09 09:59:51;;;;;;;;;;;21.00;59.00;;;;;;6299725;28;19954;-70
2023/06/09 10:02:56;;;;;;;;;;;21.00;59.00;;;;;;6299106;28;19952;-71
2023/06/09 10:05:59;;;;;;;;;;;21.00;59.00;;;;;;6299589;28;20363;-70
2023/06/09 10:09:00;;;;;;;;;;;21.00;59.00;;;;;;6299336;28;20309;-70
2023/06/09 10:12:01;;;;;;;;;;;21.00;59.00;;;;;;6299288;28;20382;-71
2023/06/09 10:15:01;;;;;;;;;;;21.00;59.00;;;;;;6274547;28;19909;-70
2023/06/09 10:18:02;;;;;;;;;;;21.00;59.00;;;;;;6281920;28;20424;-70
2023/06/09 10:21:03;;;;;;;;;;;21.00;59.00;;;;;;6298659;28;19996;-70
2023/06/09 10:24:04;;;;;;;;;;;21.00;59.00;;;;;;6299098;28;20421;-70
2023/06/09 10:27:06;;;;;;;;;;;21.00;59.00;;;;;;6298957;28;19987;-71
2023/06/09 10:30:07;;;;;;;;;;;21.00;59.00;;;;;;6298818;28;19912;-71
2023/06/09 10:33:26;;;;;;;;;;;21.00;59.00;;;;;;6298094;28;19919;-70
2023/06/09 10:36:33;;;;;;;;;;;21.00;59.00;;;;;;6298069;28;19951;-70
2023/06/09 10:40:00;;;;;;;;;;;21.00;59.00;;;;;;6286820;28;19923;-70
2023/06/09 10:43:03;;;;;;;;;;;21.00;59.00;;;;;;6286099;28;20323;-70
2023/06/09 10:46:04;;;;;;;;;;;21.00;59.00;;;;;;6272673;28;19912;-71
2023/06/09 10:49:05;;;;;;;;;;;21.00;59.00;;;;;;6275028;28;20359;-70
2023/06/09 10:52:06;;;;;;;;;;;21.00;59.00;;;;;;6272321;28;19913;-70
2023/06/09 10:55:14;;;;;;;;;;;21.00;59.00;;;;;;6274461;28;19916;-71
2023/06/09 10:58:35;;;;;;;;;;;21.00;59.00;;;;;;6290745;28;19908;-70
2023/06/09 11:01:55;;;;;;;;;;;21.00;59.00;;;;;;6271518;28;19913;-71
2023/06/09 11:04:56;;;;;;;;;;;21.00;59.00;;;;;;6272358;28;19990;-70
2023/06/09 11:08:04;;;;;;;;;;;21.00;59.00;;;;;;6285422;28;20350;-70
2023/06/09 11:11:13;;;;;;;;;;;21.00;59.00;;;;;;6296550;28;20538;-70
2023/06/09 11:14:32;;;;;;;;;;;21.00;59.00;;;;;;6294637;28;20285;-70
2023/06/09 11:17:42;;;;;;;;;;;21.00;59.00;;;;;;6273026;28;19909;-70
2023/06/09 11:20:43;;;;;;;;;;;21.00;59.20;;;;;;6296427;28;19969;-71
2023/06/09 11:23:57;;;;;;;;;;;21.10;59.20;;;;;;6309476;28;19908;-71
2023/06/09 11:27:16;;;;;;;;;;;21.20;59.10;;;;;;6296221;28;19912;-71
2023/06/09 11:30:20;;;;;;;;;;;21.20;58.90;;;;;;6311342;28;19916;-71
2023/06/09 11:33:59;;;;;;;;;;;21.30;58.90;;;;;;6302410;28;19923;-71
2023/06/09 11:37:00;;;;;;;;;;;21.40;58.80;;;;;;6251744;28;20374;-71
2023/06/09 11:40:01;;;;;;;;;;;21.40;58.80;;;;;;6261782;28;20415;-71
2023/06/09 11:43:02;;;;;;;;;;;21.40;58.80;;;;;;6287232;28;19944;-71
2023/06/09 11:46:03;;;;;;;;;;;21.40;58.90;;;;;;6281414;28;20351;-71
2023/06/09 11:49:05;;;;;;;;;;;21.40;58.80;;;;;;6297602;28;19967;-70
2023/06/09 11:52:06;;;;;;;;;;;21.40;58.80;;;;;;6296950;28;19975;-70
2023/06/09 11:55:07;;;;;;;;;;;21.40;58.80;;;;;;6304483;28;19912;-71
2023/06/09 11:58:09;;;;;;;;;;;21.40;58.70;;;;;;6320892;28;19908;-71
2023/06/09 12:01:10;;;;;;;;;;;21.40;58.80;;;;;;6299926;28;20292;-71
2023/06/09 12:04:10;;;;;;;;;;;21.40;58.80;;;;;;6274197;28;19940;-70
2023/06/09 12:07:12;;;;;;;;;;;21.40;58.70;;;;;;6294385;28;19909;-71
2023/06/09 12:10:17;;;;;;;;;;;21.40;58.70;;;;;;6303422;28;19912;-71
2023/06/09 12:13:17;;;;;;;;;;;21.40;58.70;;;;;;6320164;28;20033;-71
2023/06/09 12:16:18;;;;;;;;;;;21.40;58.60;;;;;;6300929;28;19912;-71
2023/06/09 12:19:19;;;;;;;;;;;21.40;58.70;;;;;;6295297;28;19913;-70
2023/06/09 12:22:19;;;;;;;;;;;21.40;58.60;;;;;;6319841;28;20460;-69
2023/06/09 12:25:20;;;;;;;;;;;21.40;58.60;;;;;;6310459;28;19924;-70
2023/06/09 12:28:26;;;;;;;;;;;21.40;58.60;;;;;;6295125;28;19940;-69
2023/06/09 12:31:26;;;;;;;;;;;21.40;58.60;;;;;;6302690;28;19916;-69
2023/06/09 12:34:29;;;;;;;;;;;21.40;58.60;;;;;;6269558;28;19921;-69
2023/06/09 12:37:36;;;;;;;;;;;21.40;58.90;;;;;;6305565;28;19909;-72
2023/06/09 12:40:43;;;;;;;;;;;21.40;58.70;;;;;;6299714;28;19908;-72
2023/06/09 12:43:48;;;;;;;;;;;21.50;58.90;;;;;;6319799;28;20227;-72
2023/06/09 12:46:55;;;;;;;;;;;21.50;58.70;;;;;;6305880;28;19913;-70
2023/06/09 12:49:59;;;;;;;;;;;21.50;58.70;;;;;;6296678;28;19943;-69
2023/06/09 12:52:59;;;;;;;;;;;21.50;58.60;;;;;;6324278;28;20263;-70
2023/06/09 12:56:00;;;;;;;;;;;21.50;58.70;;;;;;6313422;28;19908;-70
2023/06/09 12:59:01;;;;;;;;;;;21.50;58.60;;;;;;6299553;28;19909;-69
2023/06/09 13:02:01;;;;;;;;;;;21.50;58.60;;;;;;6312663;28;19973;-70
2023/06/09 13:05:02;;;;;;;;;;;21.50;58.60;;;;;;6322969;28;19924;-69
2023/06/09 13:08:03;;;;;;;;;;;21.50;58.60;;;;;;6297853;28;20001;-69
2023/06/09 13:11:04;;;;;;;;;;;21.50;58.60;;;;;;6306007;28;20039;-69
2023/06/09 13:14:05;;;;;;;;;;;21.50;58.60;;;;;;6300458;28;19913;-69
2023/06/09 13:17:06;;;;;;;;;;;21.40;58.50;;;;;;6298923;28;19915;-69
2023/06/09 13:20:06;;;;;;;;;;;21.40;58.70;;;;;;6299285;28;20379;-70
2023/06/09 13:23:07;;;;;;;;;;;21.40;58.70;;;;;;6307017;28;19930;-69
2023/06/09 13:26:08;;;;;;;;;;;21.50;58.70;;;;;;6298445;28;19913;-70
2023/06/09 13:29:09;;;;;;;;;;;21.50;58.70;;;;;;6298861;28;19967;-70
2023/06/09 13:32:09;;;;;;;;;;;21.50;58.60;;;;;;6294502;28;19916;-71
2023/06/09 13:35:10;;;;;;;;;;;21.50;58.60;;;;;;6297614;28;19912;-71
2023/06/09 13:38:11;;;;;;;;;;;21.50;58.50;;;;;;6297323;28;19927;-70
2023/06/09 13:41:12;;;;;;;;;;;21.50;58.50;;;;;;6288709;28;19909;-70
2023/06/09 13:44:12;;;;;;;;;;;21.50;58.50;;;;;;6322389;28;19909;-71
2023/06/09 13:47:13;;;;;;;;;;;21.50;58.50;;;;;;6308516;28;19998;-71
2023/06/09 13:50:13;;;;;;;;;;;21.50;58.50;;;;;;6296502;28;20504;-71
2023/06/09 13:53:14;;;;;;;;;;;21.50;58.50;;;;;;6307607;28;19993;-70
2023/06/09 13:56:16;;;;;;;;;;;21.50;58.50;;;;;;6317951;28;19913;-70
2023/06/09 13:59:17;;;;;;;;;;;21.50;58.60;;;;;;6298455;28;19914;-70
2023/06/09 14:02:17;;;;;;;;;;;21.50;58.50;;;;;;6298312;28;19908;-70
2023/06/09 14:05:19;;;;;;;;;;;21.50;58.50;;;;;;6323749;28;19924;-70
2023/06/09 14:08:19;;;;;;;;;;;21.50;58.50;;;;;;6302835;28;19912;-70
2023/06/09 14:11:20;;;;;;;;;;;21.50;58.50;;;;;;6294894;28;20524;-70
2023/06/09 14:14:21;;;;;;;;;;;21.50;58.50;;;;;;6294911;28;19923;-70
2023/06/09 14:17:21;;;;;;;;;;;21.50;58.60;;;;;;6296166;28;20011;-70
2023/06/09 14:20:24;;;;;;;;;;;21.50;58.50;;;;;;6323027;28;19908;-70
2023/06/09 14:23:25;;;;;;;;;;;21.50;58.50;;;;;;6303287;28;19909;-70
2023/06/09 14:26:25;;;;;;;;;;;21.50;58.60;;;;;;6297147;28;19915;-70
2023/06/09 14:29:26;;;;;;;;;;;21.50;58.60;;;;;;6297194;28;19944;-70
2023/06/09 14:32:26;;;;;;;;;;;21.50;58.60;;;;;;6289082;28;19913;-70
2023/06/09 14:35:27;;;;;;;;;;;21.50;58.60;;;;;;6297900;28;20003;-70
2023/06/09 14:38:28;;;;;;;;;;;21.50;58.60;;;;;;6297011;28;19913;-70
2023/06/09 14:41:29;;;;;;;;;;;21.50;58.60;;;;;;6296709;28;19947;-69
2023/06/09 14:44:29;;;;;;;;;;;21.50;58.70;;;;;;6296285;28;20274;-70
2023/06/09 14:47:30;;;;;;;;;;;21.50;58.50;;;;;;6289501;28;19912;-70
2023/06/09 14:50:31;;;;;;;;;;;21.50;58.60;;;;;;6296392;28;19912;-69
2023/06/09 14:53:33;;;;;;;;;;;21.50;58.50;;;;;;6292289;28;19909;-70
2023/06/09 14:56:33;;;;;;;;;;;21.50;58.50;;;;;;6297161;28;19915;-69
2023/06/09 14:59:34;;;;;;;;;;;21.40;58.50;;;;;;6294953;28;20307;-69
2023/06/09 15:02:34;;;;;;;;;;;21.40;58.50;;;;;;6290424;28;19913;-70
2023/06/09 15:05:35;;;;;;;;;;;21.40;58.50;;;;;;6294366;28;20030;-70
2023/06/09 15:08:37;;;;;;;;;;;21.40;58.50;;;;;;6294200;28;19914;-70
2023/06/09 15:11:38;;;;;;;;;;;21.40;58.60;;;;;;6321492;28;20324;-70
2023/06/09 15:14:41;;;;;;;;;;;21.40;58.60;;;;;;6298486;28;20118;-70
2023/06/09 15:17:41;;;;;;;;;;;21.40;58.60;;;;;;6289940;28;19916;-70
2023/06/09 15:20:42;;;;;;;;;;;21.40;58.60;;;;;;6293265;28;19912;-70
2023/06/09 15:23:43;;;;;;;;;;;21.40;58.60;;;;;;6291930;28;20238;-70
2023/06/09 15:26:43;;;;;;;;;;;21.40;58.70;;;;;;6321617;28;19963;-70
2023/06/09 15:29:44;;;;;;;;;;;21.40;58.70;;;;;;6299262;28;20386;-70
2023/06/09 15:32:44;;;;;;;;;;;21.40;58.70;;;;;;6286338;28;19912;-70
2023/06/09 15:35:46;;;;;;;;;;;21.40;58.70;;;;;;6315950;28;20327;-70
2023/06/09 15:38:46;;;;;;;;;;;21.40;58.80;;;;;;6300044;28;20389;-70
2023/06/09 15:41:47;;;;;;;;;;;21.40;58.80;;;;;;6320226;28;19943;-70
2023/06/09 15:44:47;;;;;;;;;;;21.30;58.70;;;;;;6301154;28;19966;-70
2023/06/09 15:47:48;;;;;;;;;;;21.40;58.80;;;;;;6293210;28;19966;-70
2023/06/09 15:50:49;;;;;;;;;;;21.30;58.70;;;;;;6307244;28;19922;-70
2023/06/09 15:53:50;;;;;;;;;;;21.40;58.80;;;;;;6305132;28;19909;-70
2023/06/09 15:56:50;;;;;;;;;;;21.40;58.80;;;;;;6293580;28;19961;-70
2023/06/09 15:59:51;;;;;;;;;;;21.30;58.70;;;;;;6294017;28;19946;-70
2023/06/09 16:02:52;;;;;;;;;;;21.30;58.70;;;;;;6316434;28;19930;-70
2023/06/09 16:05:52;;;;;;;;;;;21.40;58.80;;;;;;6293095;28;19917;-71
2023/06/09 16:08:53;;;;;;;;;;;21.30;58.80;;;;;;6280440;28;19920;-70
2023/06/09 16:11:53;;;;;;;;;;;21.30;58.70;;;;;;6292382;28;20007;-70
2023/06/09 16:14:56;;;;;;;;;;;21.40;58.90;;;;;;6299170;28;19912;-70
2023/06/09 16:17:57;;;;;;;;;;;21.30;58.70;;;;;;6316560;28;19912;-70
2023/06/09 16:20:57;;;;;;;;;;;21.40;58.80;;;;;;6291516;28;20317;-70
2023/06/09 16:23:57;;;;;;;;;;;21.30;58.70;;;;;;6284715;28;20375;-70
2023/06/09 16:26:58;;;;;;;;;;;21.30;58.80;;;;;;6289399;28;20023;-70
2023/06/09 16:29:59;;;;;;;;;;;21.30;58.70;;;;;;6288142;28;19999;-70
2023/06/09 16:33:00;;;;;;;;;;;21.30;58.80;;;;;;6288852;28;20351;-70
2023/06/09 16:36:03;;;;;;;;;;;21.30;58.80;;;;;;6301468;28;19920;-70
2023/06/09 16:39:05;;;;;;;;;;;21.40;58.90;;;;;;6275404;28;19909;-70
2023/06/09 16:42:06;;;;;;;;;;;21.30;58.80;;;;;;6299932;28;19915;-70
2023/06/09 16:45:06;;;;;;;;;;;21.30;58.80;;;;;;6286780;28;19908;-70
2023/06/09 16:48:07;;;;;;;;;;;21.30;58.90;;;;;;6294457;28;19938;-70
2023/06/09 16:51:08;;;;;;;;;;;21.30;58.80;;;;;;6302769;28;20417;-70
2023/06/09 16:54:08;;;;;;;;;;;21.30;58.80;;;;;;6311674;28;19938;-70
2023/06/09 16:57:09;;;;;;;;;;;21.30;58.80;;;;;;6290934;28;20071;-70
2023/06/09 17:00:10;;;;;;;;;;;21.30;58.80;;;;;;6284204;28;19973;-70
2023/06/09 17:03:11;;;;;;;;;;;21.30;58.90;;;;;;6289007;28;19916;-69
2023/06/09 17:06:11;;;;;;;;;;;21.30;58.90;;;;;;6307185;28;20005;-71
2023/06/09 17:09:13;;;;;;;;;;;21.30;58.90;;;;;;6313519;28;19912;-70
2023/06/09 17:12:14;;;;;;;;;;;21.30;58.90;;;;;;6294658;28;20014;-70
2023/06/09 17:15:15;;;;;;;;;;;21.30;58.90;;;;;;6291634;28;19919;-70
2023/06/09 17:18:15;;;;;;;;;;;21.30;58.90;;;;;;6315921;28;19912;-69
2023/06/09 17:21:16;;;;;;;;;;;21.30;58.90;;;;;;6296684;28;19912;-70
2023/06/09 17:24:16;;;;;;;;;;;21.30;58.90;;;;;;6289968;28;19954;-70
2023/06/09 17:27:17;;;;;;;;;;;21.30;58.90;;;;;;6290743;28;19908;-70
2023/06/09 17:30:17;;;;;;;;;;;21.30;58.90;;;;;;6282565;28;19962;-70
2023/06/09 17:33:19;;;;;;;;;;;21.30;58.90;;;;;;6300540;28;20171;-70
2023/06/09 17:36:20;;;;;;;;;;;21.30;58.90;;;;;;6298164;28;19926;-70
2023/06/09 17:39:21;;;;;;;;;;;21.30;58.90;;;;;;6312563;28;19912;-70